Time,TemperatureF,DewpointF,PressureIn,WindDirection,WindDirectionDegrees,WindSpeedMPH,WindSpeedGustMPH,Humidity,HourlyPrecipIn,Conditions,Clouds,dailyrainin,SoftwareType,DateUTC
2013-06-07 00:02:00,77.5,66.5,29.89,NNE,19,9.2,9.2,69,0.00,CLR,,0.00,WeatherDisplay:10.37,2013-06-07 05:02:00,
2013-06-07 00:07:00,77.4,66.0,29.89,NNE,32,9.2,9.2,68,0.00,CLR,,0.00,WeatherDisplay:10.37,2013-06-07 05:07:00,
2013-06-07 00:12:00,77.4,65.6,29.89,North,352,7.0,7.0,67,0.00,CLR,,0.00,WeatherDisplay:10.37,2013-06-07 05:12:00,
2013-06-07 00:17:00,77.4,65.6,29.89,NNE,27,11.5,11.5,67,0.00,CLR,,0.00,WeatherDisplay:10.37,2013-06-07 05:17:00,
2013-06-07 00:22:00,77.4,65.6,29.90,NE,47,8.1,8.1,67,0.00,CLR,,0.00,WeatherDisplay:10.37,2013-06-07 05:22:00,
2013-06-07 00:27:00,77.4,65.1,29.90,NE,37,11.5,11.5,66,0.00,CLR,,0.00,WeatherDisplay:10.37,2013-06-07 05:27:00,
2013-06-07 00:32:00,77.3,65.1,29.90,NE,50,6.9,6.9,66,0.00,CLR,,0.00,WeatherDisplay:10.37,2013-06-07 05:32:00,
2013-06-07 00:37:00,77.2,65.0,29.90,NE,40,6.9,6.9,66,0.00,CLR,,0.00,WeatherDisplay:10.37,2013-06-07 05:37:00,
2013-06-07 00:42:00,77.1,65.3,29.90,ENE,70,6.9,6.9,67,0.00,CLR,,0.00,WeatherDisplay:10.37,2013-06-07 05:42:00,
2013-06-07 00:47:00,76.9,65.1,29.90,NE,56,5.8,6.4,67,0.00,CLR,,0.00,WeatherDisplay:10.37,2013-06-07 05:47:00,
2013-06-07 00:52:00,76.7,64.9,29.90,ENE,68,12.7,12.7,67,0.00,CLR,,0.00,WeatherDisplay:10.37,2013-06-07 05:52:00,
2013-06-07 00:57:00,76.4,65.1,29.90,NE,46,5.8,5.8,68,0.00,CLR,,0.00,WeatherDisplay:10.37,2013-06-07 05:57:00,
2013-06-07 01:02:00,76.1,64.8,29.90,NNE,25,5.8,5.8,68,0.00,CLR,,0.00,WeatherDisplay:10.37,2013-06-07 06:02:00,
2013-06-07 01:07:00,75.9,65.0,29.90,ENE,60,5.8,5.8,69,0.00,CLR,,0.00,WeatherDisplay:10.37,2013-06-07 06:07:00,
2013-06-07 01:12:00,75.6,64.7,29.89,North,1,5.8,5.8,69,0.00,CLR,,0.00,WeatherDisplay:10.37,2013-06-07 06:12:00,
2013-06-07 01:17:00,75.4,64.9,29.89,NE,56,4.6,4.6,70,0.00,CLR,,0.00,WeatherDisplay:10.37,2013-06-07 06:17:00,
2013-06-07 01:22:00,75.1,65.1,29.89,North,6,4.6,4.6,71,0.00,CLR,,0.00,WeatherDisplay:10.37,2013-06-07 06:22:00,
2013-06-07 01:28:00,74.9,64.9,29.88,North,352,6.0,6.0,71,0.00,CLR,,0.00,WeatherDisplay:10.37,2013-06-07 06:28:00,
2013-06-07 01:33:00,74.7,65.1,29.88,NE,47,6.9,6.9,72,0.00,CLR,,0.00,WeatherDisplay:10.37,2013-06-07 06:33:00,
2013-06-07 01:38:00,74.5,64.9,29.88,NNE,32,7.0,7.0,72,0.00,CLR,,0.00,WeatherDisplay:10.37,2013-06-07 06:38:00,
2013-06-07 01:43:00,74.4,65.2,29.88,ENE,57,4.6,4.6,73,0.00,CLR,,0.00,WeatherDisplay:10.37,2013-06-07 06:43:00,
2013-06-07 01:48:00,74.2,65.0,29.88,NE,46,4.6,4.6,73,0.00,CLR,,0.00,WeatherDisplay:10.37,2013-06-07 06:48:00,
2013-06-07 01:53:00,74.0,65.2,29.88,NE,39,4.6,4.6,74,0.00,CLR,,0.00,WeatherDisplay:10.37,2013-06-07 06:53:00,
2013-06-07 01:58:00,73.8,65.0,29.88,NNE,28,4.6,4.6,74,0.00,CLR,,0.00,WeatherDisplay:10.37,2013-06-07 06:58:00,
2013-06-07 02:03:00,73.6,65.2,29.88,ENE,68,4.6,4.6,75,0.00,CLR,,0.00,WeatherDisplay:10.37,2013-06-07 07:03:00,
2013-06-07 02:08:00,73.4,65.4,29.89,NE,37,3.5,3.5,76,0.00,CLR,,0.00,WeatherDisplay:10.37,2013-06-07 07:08:00,
2013-06-07 02:13:00,73.2,65.2,29.88,NNW,339,3.5,3.5,76,0.00,CLR,,0.00,WeatherDisplay:10.37,2013-06-07 07:13:00,
2013-06-07 02:18:00,73.1,65.5,29.89,North,5,3.5,3.5,77,0.00,CLR,,0.00,WeatherDisplay:10.37,2013-06-07 07:18:00,
2013-06-07 02:23:00,73.0,65.4,29.89,NNW,343,3.5,3.5,77,0.00,CLR,,0.00,WeatherDisplay:10.37,2013-06-07 07:23:00,
2013-06-07 02:28:00,72.9,65.3,29.89,North,4,2.3,2.3,77,0.00,CLR,,0.00,WeatherDisplay:10.37,2013-06-07 07:28:00,
2013-06-07 02:33:00,72.8,65.2,29.89,NNE,33,3.5,3.5,77,0.00,CLR,,0.00,WeatherDisplay:10.37,2013-06-07 07:33:00,
2013-06-07 02:38:00,72.8,65.2,29.89,NE,44,3.5,3.5,77,0.00,CLR,,0.00,WeatherDisplay:10.37,2013-06-07 07:38:00,
2013-06-07 02:43:00,72.6,65.3,29.89,NE,44,2.3,2.3,78,0.00,CLR,,0.00,WeatherDisplay:10.37,2013-06-07 07:43:00,
2013-06-07 02:48:00,72.5,65.2,29.89,North,352,1.1,1.1,78,0.00,CLR,,0.00,WeatherDisplay:10.37,2013-06-07 07:48:00,
2013-06-07 02:53:00,72.4,65.2,29.89,NE,41,3.5,3.5,78,0.00,CLR,,0.00,WeatherDisplay:10.37,2013-06-07 07:53:00,
2013-06-07 02:58:00,72.2,65.3,29.89,NNE,25,2.3,2.3,79,0.00,CLR,,0.00,WeatherDisplay:10.37,2013-06-07 07:58:00,
2013-06-07 03:03:00,72.0,65.1,29.89,North,11,3.5,3.5,79,0.00,CLR,,0.00,WeatherDisplay:10.37,2013-06-07 08:03:00,
2013-06-07 03:08:00,71.9,65.4,29.89,NNE,25,2.3,2.3,80,0.00,CLR,,0.00,WeatherDisplay:10.37,2013-06-07 08:08:00,
2013-06-07 03:13:00,71.8,65.3,29.89,North,349,3.5,3.5,80,0.00,CLR,,0.00,WeatherDisplay:10.37,2013-06-07 08:13:00,
2013-06-07 03:18:00,71.7,65.2,29.89,NNE,25,1.1,1.1,80,0.00,CLR,,0.00,WeatherDisplay:10.37,2013-06-07 08:18:00,
2013-06-07 03:23:00,71.5,65.4,29.89,North,359,0.0,0.0,81,0.00,CLR,,0.00,WeatherDisplay:10.37,2013-06-07 08:23:00,
2013-06-07 03:28:00,71.4,65.3,29.89,NNE,18,0.0,0.0,81,0.00,CLR,,0.00,WeatherDisplay:10.37,2013-06-07 08:28:00,
2013-06-07 03:33:00,71.3,65.2,29.89,NNE,32,1.1,1.1,81,0.00,CLR,,0.00,WeatherDisplay:10.37,2013-06-07 08:33:00,
2013-06-07 03:38:00,71.3,65.2,29.89,NE,43,3.5,3.5,81,0.00,CLR,,0.00,WeatherDisplay:10.37,2013-06-07 08:38:00,
2013-06-07 03:43:00,71.4,65.3,29.89,NE,54,2.3,2.3,81,0.00,CLR,,0.00,WeatherDisplay:10.37,2013-06-07 08:43:00,
2013-06-07 03:48:00,71.4,65.3,29.89,NNE,14,2.3,2.3,81,0.00,CLR,,0.00,WeatherDisplay:10.37,2013-06-07 08:48:00,
2013-06-07 03:53:00,71.5,65.4,29.89,NNE,17,3.5,3.5,81,0.00,CLR,,0.00,WeatherDisplay:10.37,2013-06-07 08:53:00,
2013-06-07 03:58:00,71.5,65.4,29.89,North,352,4.6,4.6,81,0.00,CLR,,0.00,WeatherDisplay:10.37,2013-06-07 08:58:00,
2013-06-07 04:03:00,71.4,65.3,29.89,NNE,15,3.5,3.5,81,0.00,CLR,,0.00,WeatherDisplay:10.37,2013-06-07 09:03:00,
2013-06-07 04:08:00,71.4,65.3,29.89,NNE,27,1.1,1.1,81,0.00,CLR,,0.00,WeatherDisplay:10.37,2013-06-07 09:08:00,
2013-06-07 04:13:00,71.4,65.3,29.89,North,357,3.5,3.5,81,0.00,CLR,,0.00,WeatherDisplay:10.37,2013-06-07 09:13:00,
2013-06-07 04:18:00,71.5,65.4,29.89,NNE,32,3.5,3.5,81,0.00,CLR,,0.00,WeatherDisplay:10.37,2013-06-07 09:18:00,
2013-06-07 04:23:00,71.5,65.0,29.89,North,358,3.5,3.5,80,0.00,CLR,,0.00,WeatherDisplay:10.37,2013-06-07 09:23:00,
2013-06-07 04:28:00,71.4,64.9,29.89,NE,36,3.5,3.5,80,0.00,CLR,,0.00,WeatherDisplay:10.37,2013-06-07 09:28:00,
2013-06-07 04:33:00,71.4,65.3,29.89,NNE,27,2.3,2.3,81,0.00,CLR,,0.00,WeatherDisplay:10.37,2013-06-07 09:33:00,
2013-06-07 04:38:00,71.3,65.2,29.89,NE,34,4.6,4.6,81,0.00,CLR,,0.00,WeatherDisplay:10.37,2013-06-07 09:38:00,
2013-06-07 04:43:00,71.2,65.1,29.89,NNE,19,3.5,3.5,81,0.00,CLR,,0.00,WeatherDisplay:10.37,2013-06-07 09:43:00,
2013-06-07 04:48:00,71.0,64.9,29.89,NE,52,3.5,3.5,81,0.00,CLR,,0.00,WeatherDisplay:10.37,2013-06-07 09:48:00,
2013-06-07 04:53:00,70.8,65.0,29.90,NNE,18,3.5,3.5,82,0.00,CLR,,0.00,WeatherDisplay:10.37,2013-06-07 09:53:00,
2013-06-07 04:58:00,70.6,64.8,29.89,NNE,25,3.5,3.5,82,0.00,CLR,,0.00,WeatherDisplay:10.37,2013-06-07 09:58:00,
2013-06-07 05:03:00,70.4,65.0,29.89,NE,43,3.5,3.5,83,0.00,CLR,,0.00,WeatherDisplay:10.37,2013-06-07 10:03:00,
2013-06-07 05:08:00,70.2,64.8,29.89,NE,56,4.6,4.6,83,0.00,CLR,,0.00,WeatherDisplay:10.37,2013-06-07 10:08:00,
2013-06-07 05:13:00,70.0,64.9,29.89,North,359,3.5,3.5,84,0.00,CLR,,0.00,WeatherDisplay:10.37,2013-06-07 10:13:00,
2013-06-07 05:18:00,69.8,64.7,29.89,NE,52,2.3,2.3,84,0.00,CLR,,0.00,WeatherDisplay:10.37,2013-06-07 10:18:00,
2013-06-07 05:23:00,69.7,65.0,29.90,NE,46,2.3,2.3,85,0.00,CLR,,0.00,WeatherDisplay:10.37,2013-06-07 10:23:00,
2013-06-07 05:28:00,69.7,65.0,29.90,NNE,25,1.1,1.1,85,0.00,CLR,,0.00,WeatherDisplay:10.37,2013-06-07 10:28:00,
2013-06-07 05:33:00,69.7,65.0,29.90,ENE,67,1.1,1.1,85,0.00,CLR,,0.00,WeatherDisplay:10.37,2013-06-07 10:33:00,
2013-06-07 05:38:00,69.6,64.9,29.89,NE,51,1.1,1.1,85,0.00,CLR,,0.00,WeatherDisplay:10.37,2013-06-07 10:38:00,
2013-06-07 05:43:00,69.5,64.8,29.90,ENE,63,0.0,0.0,85,0.00,CLR,,0.00,WeatherDisplay:10.37,2013-06-07 10:43:00,
2013-06-07 05:48:00,69.3,64.6,29.90,NE,51,3.5,0.0,85,0.00,CLR,,0.00,WeatherDisplay:10.37,2013-06-07 10:48:00,
2013-06-07 05:53:00,69.2,64.8,29.90,North,358,0.0,0.0,86,0.00,CLR,,0.00,WeatherDisplay:10.37,2013-06-07 10:53:00,
2013-06-07 05:58:00,69.1,64.7,29.90,NE,34,1.1,1.1,86,0.00,CLR,,0.00,WeatherDisplay:10.37,2013-06-07 10:58:00,
2013-06-07 06:03:00,69.1,64.7,29.90,NE,47,2.3,2.3,86,0.00,CLR,,0.00,WeatherDisplay:10.37,2013-06-07 11:03:00,
2013-06-07 06:08:00,69.1,64.7,29.90,North,9,1.1,0.0,86,0.00,CLR,,0.00,WeatherDisplay:10.37,2013-06-07 11:08:00,
2013-06-07 06:13:00,69.2,64.8,29.90,NNE,33,2.3,2.3,86,0.00,CLR,,0.00,WeatherDisplay:10.37,2013-06-07 11:13:00,
2013-06-07 06:18:00,69.2,64.8,29.90,NNE,30,1.1,1.1,86,0.00,CLR,,0.00,WeatherDisplay:10.37,2013-06-07 11:18:00,
2013-06-07 06:23:00,69.2,64.8,29.90,NNE,27,0.0,0.0,86,0.00,CLR,,0.00,WeatherDisplay:10.37,2013-06-07 11:23:00,
2013-06-07 06:28:00,69.2,64.8,29.90,North,5,1.0,1.0,86,0.00,CLR,,0.00,WeatherDisplay:10.37,2013-06-07 11:28:00,
2013-06-07 06:33:00,69.0,64.6,29.90,NNE,18,3.5,3.5,86,0.00,CLR,,0.00,WeatherDisplay:10.37,2013-06-07 11:33:00,
2013-06-07 06:38:00,69.0,65.0,29.90,NNE,27,2.3,2.3,87,0.00,CLR,,0.00,WeatherDisplay:10.37,2013-06-07 11:38:00,
2013-06-07 06:43:00,69.0,65.0,29.90,NE,56,3.5,3.5,87,0.00,CLR,,0.00,WeatherDisplay:10.37,2013-06-07 11:43:00,
2013-06-07 06:48:00,68.9,64.9,29.90,NE,51,1.1,1.1,87,0.00,CLR,,0.00,WeatherDisplay:10.37,2013-06-07 11:48:00,
2013-06-07 06:53:00,68.9,64.9,29.90,NNW,333,1.0,0.0,87,0.00,CLR,,0.00,WeatherDisplay:10.37,2013-06-07 11:53:00,
2013-06-07 06:58:00,68.9,64.9,29.90,ENE,57,1.1,1.1,87,0.00,CLR,,0.00,WeatherDisplay:10.37,2013-06-07 11:58:00,
2013-06-07 07:03:00,68.9,64.9,29.90,NW,320,1.1,1.1,87,0.00,CLR,,0.00,WeatherDisplay:10.37,2013-06-07 12:03:00,
2013-06-07 07:08:00,69.1,65.1,29.90,NE,56,5.8,5.8,87,0.00,CLR,,0.00,WeatherDisplay:10.37,2013-06-07 12:08:00,
2013-06-07 07:13:00,69.2,65.2,29.91,ENE,60,4.6,4.6,87,0.00,CLR,,0.00,WeatherDisplay:10.37,2013-06-07 12:13:00,
2013-06-07 07:18:00,69.4,65.4,29.90,ENE,57,3.5,3.5,87,0.00,CLR,,0.00,WeatherDisplay:10.37,2013-06-07 12:18:00,
2013-06-07 07:23:00,69.6,65.6,29.90,North,8,3.5,3.5,87,0.00,CLR,,0.00,WeatherDisplay:10.37,2013-06-07 12:23:00,
2013-06-07 07:28:00,69.8,65.4,29.90,NE,46,4.6,4.6,86,0.00,CLR,,0.00,WeatherDisplay:10.37,2013-06-07 12:28:00,
2013-06-07 07:33:00,70.1,65.7,29.90,ENE,67,8.1,8.1,86,0.00,CLR,,0.00,WeatherDisplay:10.37,2013-06-07 12:33:00,
2013-06-07 07:38:00,70.5,66.1,29.91,North,8,3.5,3.5,86,0.00,CLR,,0.00,WeatherDisplay:10.37,2013-06-07 12:38:00,
2013-06-07 07:43:00,70.8,66.1,29.91,NE,56,4.6,4.6,85,0.00,CLR,,0.00,WeatherDisplay:10.37,2013-06-07 12:43:00,
2013-06-07 07:48:00,71.1,66.4,29.91,NE,47,8.0,8.0,85,0.00,CLR,,0.00,WeatherDisplay:10.37,2013-06-07 12:48:00,
2013-06-07 07:53:00,71.2,66.1,29.91,NNE,15,5.8,5.8,84,0.00,CLR,,0.00,WeatherDisplay:10.37,2013-06-07 12:53:00,
2013-06-07 07:58:00,71.4,66.3,29.91,NNE,33,6.9,6.9,84,0.00,CLR,,0.00,WeatherDisplay:10.37,2013-06-07 12:58:00,
2013-06-07 08:03:00,71.8,66.7,29.91,East,83,4.6,4.6,84,0.00,CLR,,0.00,WeatherDisplay:10.37,2013-06-07 13:03:00,
2013-06-07 08:08:00,72.2,66.7,29.91,NE,36,9.2,9.2,83,0.00,CLR,,0.00,WeatherDisplay:10.37,2013-06-07 13:08:00,
2013-06-07 08:13:00,72.5,67.0,29.92,ENE,75,4.6,4.6,83,0.00,CLR,,0.00,WeatherDisplay:10.37,2013-06-07 13:13:00,
2013-06-07 08:18:00,72.7,66.9,29.92,NE,39,9.2,9.2,82,0.00,CLR,,0.00,WeatherDisplay:10.37,2013-06-07 13:18:00,
2013-06-07 08:23:00,72.7,66.9,29.93,NE,43,9.2,9.2,82,0.00,CLR,,0.00,WeatherDisplay:10.37,2013-06-07 13:23:00,
2013-06-07 08:28:00,72.6,66.8,29.93,NE,40,4.6,4.6,82,0.00,CLR,,0.00,WeatherDisplay:10.37,2013-06-07 13:28:00,
2013-06-07 08:33:00,72.5,66.7,29.93,NNE,30,9.2,9.2,82,0.00,CLR,,0.00,WeatherDisplay:10.37,2013-06-07 13:33:00,
2013-06-07 08:38:00,72.4,66.9,29.93,North,5,8.1,8.1,83,0.00,CLR,,0.00,WeatherDisplay:10.37,2013-06-07 13:38:00,
2013-06-07 08:43:00,72.4,66.9,29.93,NNE,15,6.9,6.9,83,0.00,CLR,,0.00,WeatherDisplay:10.37,2013-06-07 13:43:00,
2013-06-07 08:48:00,72.7,67.2,29.94,NE,43,5.8,5.8,83,0.00,CLR,,0.00,WeatherDisplay:10.37,2013-06-07 13:48:00,
2013-06-07 08:53:00,73.5,67.7,29.93,NNE,33,9.2,9.2,82,0.00,CLR,,0.00,WeatherDisplay:10.37,2013-06-07 13:53:00,
2013-06-07 08:58:00,74.2,68.0,29.93,NE,50,3.5,3.5,81,0.00,CLR,,0.00,WeatherDisplay:10.37,2013-06-07 13:58:00,
2013-06-07 09:03:00,74.8,67.8,29.94,NNE,24,8.1,8.1,79,0.00,CLR,,0.00,WeatherDisplay:10.37,2013-06-07 14:03:00,
2013-06-07 09:08:00,75.0,68.0,29.94,NE,43,6.9,6.9,79,0.00,CLR,,0.00,WeatherDisplay:10.37,2013-06-07 14:08:00,
2013-06-07 09:13:00,75.2,67.9,29.94,North,9,8.1,8.1,78,0.00,CLR,,0.00,WeatherDisplay:10.37,2013-06-07 14:13:00,
2013-06-07 09:18:00,75.3,68.0,29.94,NE,41,6.9,6.9,78,0.00,CLR,,0.00,WeatherDisplay:10.37,2013-06-07 14:18:00,
2013-06-07 09:23:00,75.1,67.8,29.94,North,349,9.2,9.2,78,0.00,CLR,,0.00,WeatherDisplay:10.37,2013-06-07 14:23:00,
2013-06-07 09:28:00,74.7,67.8,29.94,North,6,9.2,9.2,79,0.00,CLR,,0.00,WeatherDisplay:10.37,2013-06-07 14:28:00,
2013-06-07 09:33:00,74.9,67.9,29.94,NNE,18,10.4,10.4,79,0.00,CLR,,0.00,WeatherDisplay:10.37,2013-06-07 14:33:00,
2013-06-07 09:38:00,75.3,68.0,29.94,NE,56,11.5,11.5,78,0.00,CLR,,0.00,WeatherDisplay:10.37,2013-06-07 14:38:00,
2013-06-07 09:43:00,75.3,68.0,29.94,NE,55,11.5,11.5,78,0.00,CLR,,0.00,WeatherDisplay:10.37,2013-06-07 14:43:00,
2013-06-07 09:48:00,75.5,68.2,29.94,NE,56,11.5,11.5,78,0.00,CLR,,0.00,WeatherDisplay:10.37,2013-06-07 14:48:00,
2013-06-07 09:53:00,76.1,68.4,29.95,NE,37,11.5,11.5,77,0.00,CLR,,0.00,WeatherDisplay:10.37,2013-06-07 14:53:00,
2013-06-07 09:58:00,76.2,68.5,29.95,NE,41,11.5,11.5,77,0.00,CLR,,0.00,WeatherDisplay:10.37,2013-06-07 14:58:00,
2013-06-07 10:03:00,76.1,68.0,29.95,NNE,27,9.2,9.2,76,0.00,CLR,,0.00,WeatherDisplay:10.37,2013-06-07 15:03:00,
2013-06-07 10:08:00,76.2,68.8,29.95,NW,312,6.9,6.9,78,0.00,CLR,,0.00,WeatherDisplay:10.37,2013-06-07 15:08:00,
2013-06-07 10:13:00,76.7,68.9,29.95,NE,54,10.4,10.4,77,0.00,CLR,,0.00,WeatherDisplay:10.37,2013-06-07 15:13:00,
2013-06-07 10:18:00,76.8,68.7,29.95,NW,320,15.0,15.0,76,0.00,CLR,,0.00,WeatherDisplay:10.37,2013-06-07 15:18:00,
2013-06-07 10:23:00,76.8,68.3,29.96,North,1,11.5,11.5,75,0.00,CLR,,0.00,WeatherDisplay:10.37,2013-06-07 15:23:00,
2013-06-07 10:28:00,76.6,67.7,29.96,NNE,30,10.4,10.4,74,0.00,CLR,,0.00,WeatherDisplay:10.37,2013-06-07 15:28:00,
2013-06-07 10:33:00,76.6,67.7,29.96,NNW,346,11.5,11.5,74,0.00,CLR,,0.00,WeatherDisplay:10.37,2013-06-07 15:33:00,
2013-06-07 10:38:00,76.3,67.8,29.95,ENE,70,10.4,10.4,75,0.00,CLR,,0.00,WeatherDisplay:10.37,2013-06-07 15:38:00,
2013-06-07 10:43:00,76.7,68.2,29.95,NNE,15,11.5,11.5,75,0.00,CLR,,0.00,WeatherDisplay:10.37,2013-06-07 15:43:00,
2013-06-07 10:48:00,77.3,68.0,29.96,NNE,30,11.5,11.5,73,0.00,CLR,,0.00,WeatherDisplay:10.37,2013-06-07 15:48:00,
2013-06-07 10:53:00,77.2,67.9,29.95,NNW,342,10.4,10.4,73,0.00,CLR,,0.00,WeatherDisplay:10.37,2013-06-07 15:53:00,
2013-06-07 10:58:00,77.1,67.4,29.95,NNE,33,10.4,10.4,72,0.00,CLR,,0.00,WeatherDisplay:10.37,2013-06-07 15:58:00,
2013-06-07 11:03:00,77.2,67.5,29.95,NNW,346,13.8,13.8,72,0.00,CLR,,0.00,WeatherDisplay:10.37,2013-06-07 16:03:00,
2013-06-07 11:08:00,77.2,67.5,29.95,North,353,9.2,9.2,72,0.00,CLR,,0.00,WeatherDisplay:10.37,2013-06-07 16:08:00,
2013-06-07 11:13:00,77.1,67.4,29.95,NE,34,11.5,11.5,72,0.00,CLR,,0.00,WeatherDisplay:10.37,2013-06-07 16:13:00,
2013-06-07 11:18:00,77.0,67.7,29.95,NNE,33,9.2,9.2,73,0.00,CLR,,0.00,WeatherDisplay:10.37,2013-06-07 16:18:00,
2013-06-07 11:23:00,76.9,66.8,29.95,North,355,9.2,9.2,71,0.00,CLR,,0.00,WeatherDisplay:10.37,2013-06-07 16:23:00,
2013-06-07 11:28:00,76.7,67.0,29.95,NNW,345,8.1,8.1,72,0.00,CLR,,0.00,WeatherDisplay:10.37,2013-06-07 16:28:00,
2013-06-07 11:33:00,76.7,67.4,29.95,NW,311,5.8,5.8,73,0.00,CLR,,0.00,WeatherDisplay:10.37,2013-06-07 16:33:00,
2013-06-07 11:38:00,76.6,67.3,29.94,NNW,333,5.8,5.8,73,0.00,CLR,,0.00,WeatherDisplay:10.37,2013-06-07 16:38:00,
2013-06-07 11:43:00,76.5,67.2,29.94,NE,39,11.5,11.5,73,0.00,CLR,,0.00,WeatherDisplay:10.37,2013-06-07 16:43:00,
2013-06-07 11:48:00,76.6,67.3,29.94,NNW,338,8.1,8.1,73,0.00,CLR,,0.00,WeatherDisplay:10.37,2013-06-07 16:48:00,
2013-06-07 11:53:00,76.9,66.8,29.93,NNE,25,8.1,8.1,71,0.00,CLR,,0.00,WeatherDisplay:10.37,2013-06-07 16:53:00,
2013-06-07 11:58:00,77.2,67.1,29.94,NNW,336,8.1,8.1,71,0.00,CLR,,0.00,WeatherDisplay:10.37,2013-06-07 16:58:00,
2013-06-07 12:03:00,77.4,67.3,29.94,ENE,72,5.8,5.8,71,0.00,CLR,,0.00,WeatherDisplay:10.37,2013-06-07 17:03:00,
2013-06-07 12:08:00,77.8,68.0,29.94,NE,36,4.6,4.6,72,0.00,CLR,,0.00,WeatherDisplay:10.37,2013-06-07 17:08:00,
2013-06-07 12:13:00,77.9,67.7,29.95,North,352,2.3,2.3,71,0.00,CLR,,0.00,WeatherDisplay:10.37,2013-06-07 17:13:00,
2013-06-07 12:18:00,77.8,67.6,29.95,NNE,15,4.6,4.6,71,0.00,CLR,,0.00,WeatherDisplay:10.37,2013-06-07 17:18:00,
2013-06-07 12:23:00,77.6,67.4,29.95,NW,322,4.6,4.6,71,0.00,CLR,,0.00,WeatherDisplay:10.37,2013-06-07 17:23:00,
2013-06-07 12:28:00,77.5,67.4,29.95,NE,37,5.8,5.8,71,0.00,CLR,,0.00,WeatherDisplay:10.37,2013-06-07 17:28:00,
2013-06-07 12:33:00,77.6,67.4,29.95,NE,36,4.6,4.6,71,0.00,CLR,,0.00,WeatherDisplay:10.37,2013-06-07 17:33:00,
2013-06-07 12:38:00,77.7,67.1,29.95,North,1,5.8,5.8,70,0.00,CLR,,0.00,WeatherDisplay:10.37,2013-06-07 17:38:00,
2013-06-07 12:43:00,78.0,67.4,29.95,WNW,294,3.5,3.5,70,0.00,CLR,,0.00,WeatherDisplay:10.37,2013-06-07 17:43:00,
2013-06-07 12:48:00,78.3,67.7,29.95,ENE,72,4.6,4.6,70,0.00,CLR,,0.00,WeatherDisplay:10.37,2013-06-07 17:48:00,
2013-06-07 12:53:00,78.5,67.5,29.95,North,359,8.1,8.1,69,0.00,CLR,,0.00,WeatherDisplay:10.37,2013-06-07 17:53:00,
2013-06-07 12:59:00,78.8,68.2,29.94,NNW,345,4.0,4.0,70,0.00,CLR,,0.00,WeatherDisplay:10.37,2013-06-07 17:59:00,
2013-06-07 13:04:00,78.4,67.8,29.95,NE,34,3.5,3.5,70,0.00,CLR,,0.00,WeatherDisplay:10.37,2013-06-07 18:04:00,
2013-06-07 13:10:00,78.0,69.0,29.95,NE,34,3.5,3.5,74,0.00,CLR,,0.00,WeatherDisplay:10.37,2013-06-07 18:10:00,
2013-06-07 13:16:00,77.3,67.6,29.95,North,4,3.5,3.5,72,0.00,CLR,,0.00,WeatherDisplay:10.37,2013-06-07 18:16:00,
2013-06-07 13:21:00,77.4,68.5,29.94,NNW,347,3.5,3.5,74,0.00,CLR,,0.00,WeatherDisplay:10.37,2013-06-07 18:21:00,
2013-06-07 13:26:00,77.4,68.1,29.94,North,360,3.5,3.5,73,0.00,CLR,,0.00,WeatherDisplay:10.37,2013-06-07 18:26:00,
2013-06-07 13:31:00,77.7,68.0,29.94,NNW,330,3.5,3.5,72,0.00,CLR,,0.00,WeatherDisplay:10.37,2013-06-07 18:31:00,
2013-06-07 13:36:00,77.9,68.5,29.95,West,269,1.1,1.1,73,0.00,CLR,,0.00,WeatherDisplay:10.37,2013-06-07 18:36:00,
2013-06-07 13:41:00,77.9,68.9,29.95,WNW,285,2.3,2.3,74,0.00,CLR,,0.00,WeatherDisplay:10.37,2013-06-07 18:41:00,
2013-06-07 13:46:00,77.7,69.1,29.94,NNW,328,0.0,0.0,75,0.00,CLR,,0.00,WeatherDisplay:10.37,2013-06-07 18:46:00,
2013-06-07 13:51:00,77.5,68.9,29.94,NW,325,0.0,0.8,75,0.00,CLR,,0.00,WeatherDisplay:10.37,2013-06-07 18:51:00,
2013-06-07 13:57:00,77.3,68.8,29.94,NW,305,3.5,3.5,75,0.00,CLR,,0.00,WeatherDisplay:10.37,2013-06-07 18:57:00,
2013-06-07 14:02:00,76.8,69.4,29.94,NW,316,2.3,2.3,78,0.01,RA,,0.01,WeatherDisplay:10.37,2013-06-07 19:02:00,
2013-06-07 14:07:00,75.7,69.5,29.95,WNW,303,8.1,8.1,81,0.01,RA,,0.01,WeatherDisplay:10.37,2013-06-07 19:07:00,
2013-06-07 14:12:00,74.3,69.1,29.95,SW,229,4.6,4.6,84,0.01,CLR,,0.01,WeatherDisplay:10.37,2013-06-07 19:12:00,
2013-06-07 14:17:00,73.3,68.9,29.95,WSW,249,11.5,11.5,86,0.02,RA,,0.02,WeatherDisplay:10.37,2013-06-07 19:17:00,
2013-06-07 14:22:00,72.9,68.8,29.95,West,266,5.8,5.8,87,0.02,RA,,0.02,WeatherDisplay:10.37,2013-06-07 19:22:00,
2013-06-07 14:27:00,72.7,68.9,29.95,WSW,243,4.6,4.6,88,0.02,CLR,,0.02,WeatherDisplay:10.37,2013-06-07 19:27:00,
2013-06-07 14:33:00,72.8,68.7,29.95,West,260,10.4,10.4,87,0.02,CLR,,0.02,WeatherDisplay:10.37,2013-06-07 19:33:00,
2013-06-07 14:38:00,73.3,68.9,29.95,NW,308,3.5,3.5,86,0.02,CLR,,0.02,WeatherDisplay:10.37,2013-06-07 19:38:00,
2013-06-07 14:43:00,73.5,68.7,29.95,WSW,257,11.5,11.5,85,0.02,CLR,,0.02,WeatherDisplay:10.37,2013-06-07 19:43:00,
2013-06-07 14:49:00,73.5,68.7,29.95,WSW,249,12.7,12.7,85,0.02,CLR,,0.02,WeatherDisplay:10.37,2013-06-07 19:49:00,
2013-06-07 14:54:00,73.6,68.8,29.95,WSW,255,12.7,12.7,85,0.02,CLR,,0.02,WeatherDisplay:10.37,2013-06-07 19:54:00,
2013-06-07 14:59:00,73.9,69.1,29.94,WSW,255,10.4,10.4,85,0.01,CLR,,0.02,WeatherDisplay:10.37,2013-06-07 19:59:00,
2013-06-07 15:04:00,74.1,69.3,29.94,SW,214,6.9,6.9,85,0.01,CLR,,0.02,WeatherDisplay:10.37,2013-06-07 20:04:00,
2013-06-07 15:09:00,74.2,69.4,29.93,WSW,241,5.8,5.8,85,0.01,CLR,,0.02,WeatherDisplay:10.37,2013-06-07 20:09:00,
2013-06-07 15:14:00,74.4,69.9,29.93,West,274,2.3,2.3,86,0.00,CLR,,0.02,WeatherDisplay:10.37,2013-06-07 20:14:00,
2013-06-07 15:20:00,74.6,70.1,29.93,West,263,0.0,0.0,86,0.00,CLR,,0.02,WeatherDisplay:10.37,2013-06-07 20:20:00,
2013-06-07 15:25:00,74.9,70.1,29.93,WSW,245,4.6,4.6,85,0.00,CLR,,0.02,WeatherDisplay:10.37,2013-06-07 20:25:00,
2013-06-07 15:29:00,75.1,70.3,29.94,WSW,245,8.1,8.1,85,0.00,CLR,,0.02,WeatherDisplay:10.37,2013-06-07 20:29:00,
2013-06-07 15:35:00,75.0,69.5,29.94,SSW,201,18.4,18.4,83,0.00,CLR,,0.02,WeatherDisplay:10.37,2013-06-07 20:35:00,
2013-06-07 15:40:00,74.0,68.9,29.94,SW,219,19.6,19.6,84,0.00,CLR,,0.02,WeatherDisplay:10.37,2013-06-07 20:40:00,
2013-06-07 15:45:00,73.1,68.7,29.93,SW,218,12.0,12.0,86,0.00,CLR,,0.02,WeatherDisplay:10.37,2013-06-07 20:45:00,
2013-06-07 15:51:00,72.8,68.7,29.93,WSW,245,11.5,11.5,87,0.00,CLR,,0.02,WeatherDisplay:10.37,2013-06-07 20:51:00,
2013-06-07 15:56:00,72.4,68.3,29.92,SW,231,17.3,17.3,87,0.00,CLR,,0.02,WeatherDisplay:10.37,2013-06-07 20:56:00,
2013-06-07 16:01:00,72.2,67.8,29.92,SW,235,15.0,15.0,86,0.00,CLR,,0.02,WeatherDisplay:10.37,2013-06-07 21:01:00,
2013-06-07 16:06:00,72.1,68.0,29.92,SSW,204,11.5,11.5,87,0.00,CLR,,0.02,WeatherDisplay:10.37,2013-06-07 21:06:00,
2013-06-07 16:11:00,72.1,67.7,29.92,SSW,207,11.5,11.5,86,0.00,CLR,,0.02,WeatherDisplay:10.37,2013-06-07 21:11:00,
2013-06-07 16:17:00,72.0,67.6,29.91,SW,229,10.4,10.4,86,0.00,CLR,,0.02,WeatherDisplay:10.37,2013-06-07 21:17:00,
2013-06-07 16:22:00,71.8,67.4,29.91,SSW,198,10.4,10.4,86,0.00,CLR,,0.02,WeatherDisplay:10.37,2013-06-07 21:22:00,
2013-06-07 16:28:00,71.7,67.6,29.91,SSE,165,8.1,8.1,87,0.00,CLR,,0.02,WeatherDisplay:10.37,2013-06-07 21:28:00,
2013-06-07 16:34:00,71.9,67.8,29.90,South,172,4.6,4.6,87,0.00,CLR,,0.02,WeatherDisplay:10.37,2013-06-07 21:34:00,
2013-06-07 16:39:00,72.2,67.8,29.89,SSE,156,3.5,3.5,86,0.00,CLR,,0.02,WeatherDisplay:10.37,2013-06-07 21:39:00,
2013-06-07 16:45:00,72.6,67.8,29.88,SSE,167,2.3,2.3,85,0.00,CLR,,0.02,WeatherDisplay:10.37,2013-06-07 21:45:00,
2013-06-07 16:50:00,72.7,67.9,29.88,ESE,105,0.0,0.2,85,0.00,CLR,,0.02,WeatherDisplay:10.37,2013-06-07 21:50:00,
2013-06-07 16:55:00,72.9,67.8,29.87,SE,135,0.0,0.0,84,0.00,CLR,,0.02,WeatherDisplay:10.37,2013-06-07 21:55:00,
2013-06-07 17:01:00,73.2,68.1,29.87,East,85,0.0,0.0,84,0.00,CLR,,0.02,WeatherDisplay:10.37,2013-06-07 22:01:00,
2013-06-07 17:07:00,73.3,68.2,29.87,ENE,76,0.0,0.0,84,0.00,CLR,,0.02,WeatherDisplay:10.37,2013-06-07 22:07:00,
2013-06-07 17:12:00,73.5,68.4,29.86,NE,51,0.0,0.0,84,0.00,CLR,,0.02,WeatherDisplay:10.37,2013-06-07 22:12:00,
2013-06-07 17:18:00,73.6,68.5,29.86,North,354,0.0,0.0,84,0.00,CLR,,0.02,WeatherDisplay:10.37,2013-06-07 22:18:00,
2013-06-07 17:24:00,74.1,69.0,29.87,WNW,283,0.0,0.0,84,0.00,CLR,,0.02,WeatherDisplay:10.37,2013-06-07 22:24:00,
2013-06-07 17:30:00,74.6,69.1,29.87,NW,307,3.5,3.5,83,0.00,CLR,,0.02,WeatherDisplay:10.37,2013-06-07 22:30:00,
2013-06-07 17:35:00,75.0,69.5,29.87,NW,305,2.3,2.3,83,0.00,CLR,,0.02,WeatherDisplay:10.37,2013-06-07 22:35:00,
2013-06-07 17:40:00,75.5,69.3,29.86,WSW,246,0.0,0.0,81,0.00,CLR,,0.02,WeatherDisplay:10.37,2013-06-07 22:40:00,
2013-06-07 17:45:00,76.0,69.0,29.86,ENE,74,0.0,0.0,79,0.00,CLR,,0.02,WeatherDisplay:10.37,2013-06-07 22:45:00,
2013-06-07 17:50:00,76.1,68.7,29.86,East,82,0.0,0.0,78,0.00,CLR,,0.02,WeatherDisplay:10.37,2013-06-07 22:50:00,
2013-06-07 17:55:00,76.5,69.5,29.86,NNE,27,0.0,0.0,79,0.00,CLR,,0.02,WeatherDisplay:10.37,2013-06-07 22:55:00,
2013-06-07 18:00:00,76.9,69.5,29.86,NNW,347,0.0,0.0,78,0.00,CLR,,0.02,WeatherDisplay:10.37,2013-06-07 23:00:00,
2013-06-07 18:05:00,77.1,69.3,29.86,NNW,345,0.0,0.0,77,0.00,CLR,,0.02,WeatherDisplay:10.37,2013-06-07 23:05:00,
2013-06-07 18:11:00,77.5,68.9,29.86,WSW,240,0.0,0.0,75,0.00,CLR,,0.02,WeatherDisplay:10.37,2013-06-07 23:11:00,
2013-06-07 18:16:00,77.8,68.0,29.86,WNW,283,0.0,0.0,72,0.00,CLR,,0.02,WeatherDisplay:10.37,2013-06-07 23:16:00,
2013-06-07 18:21:00,78.3,68.9,29.86,SSW,198,0.0,0.0,73,0.00,CLR,,0.02,WeatherDisplay:10.37,2013-06-07 23:21:00,
2013-06-07 18:26:00,78.7,68.5,29.86,SE,146,0.0,0.0,71,0.00,CLR,,0.02,WeatherDisplay:10.37,2013-06-07 23:26:00,
2013-06-07 18:31:00,78.4,68.2,29.85,SE,125,0.0,0.0,71,0.00,CLR,,0.02,WeatherDisplay:10.37,2013-06-07 23:31:00,
2013-06-07 18:37:00,78.1,68.7,29.85,East,80,0.0,0.0,73,0.00,CLR,,0.02,WeatherDisplay:10.37,2013-06-07 23:37:00,
2013-06-07 18:43:00,77.9,68.5,29.86,East,82,0.0,0.0,73,0.00,CLR,,0.02,WeatherDisplay:10.37,2013-06-07 23:43:00,
2013-06-07 18:48:00,77.8,68.8,29.86,SSE,153,0.0,0.8,74,0.00,CLR,,0.02,WeatherDisplay:10.37,2013-06-07 23:48:00,
2013-06-07 18:54:00,77.7,69.1,29.86,SSE,150,0.0,0.0,75,0.00,CLR,,0.02,WeatherDisplay:10.37,2013-06-07 23:54:00,
2013-06-07 18:59:00,77.7,69.1,29.85,SSE,159,2.3,2.3,75,0.00,CLR,,0.02,WeatherDisplay:10.37,2013-06-07 23:59:00,
2013-06-07 19:05:00,76.7,70.4,29.85,SSE,154,9.2,9.2,81,0.00,CLR,,0.02,WeatherDisplay:10.37,2013-06-08 00:05:00,
2013-06-07 19:11:00,75.1,69.9,29.85,South,179,8.0,8.0,84,0.00,CLR,,0.02,WeatherDisplay:10.37,2013-06-08 00:11:00,
2013-06-07 19:17:00,73.7,68.2,29.86,South,169,6.9,6.9,83,0.00,CLR,,0.02,WeatherDisplay:10.37,2013-06-08 00:17:00,
2013-06-07 19:22:00,73.3,68.5,29.86,SSW,200,6.9,6.9,85,0.00,CLR,,0.02,WeatherDisplay:10.37,2013-06-08 00:22:00,
2013-06-07 19:27:00,73.1,68.3,29.86,SSE,166,3.5,3.5,85,0.00,CLR,,0.02,WeatherDisplay:10.37,2013-06-08 00:27:00,
2013-06-07 19:33:00,73.0,68.6,29.85,South,172,0.0,0.0,86,0.00,CLR,,0.02,WeatherDisplay:10.37,2013-06-08 00:33:00,
2013-06-07 19:38:00,72.9,68.5,29.86,SSW,198,0.0,0.0,86,0.00,CLR,,0.02,WeatherDisplay:10.37,2013-06-08 00:38:00,
2013-06-07 19:43:00,72.8,68.4,29.86,SW,215,0.0,0.0,86,0.00,CLR,,0.02,WeatherDisplay:10.37,2013-06-08 00:43:00,
2013-06-07 19:48:00,72.7,68.3,29.85,SSE,156,0.0,0.0,86,0.00,CLR,,0.02,WeatherDisplay:10.37,2013-06-08 00:48:00,
2013-06-07 19:53:00,72.8,68.7,29.85,SE,124,0.0,0.0,87,0.00,CLR,,0.02,WeatherDisplay:10.37,2013-06-08 00:53:00,
2013-06-07 19:58:00,73.1,68.7,29.85,ESE,123,0.0,0.0,86,0.00,CLR,,0.02,WeatherDisplay:10.37,2013-06-08 00:58:00,
2013-06-07 20:03:00,73.1,69.0,29.85,ESE,122,0.0,0.0,87,0.00,CLR,,0.02,WeatherDisplay:10.37,2013-06-08 01:03:00,
2013-06-07 20:08:00,73.1,69.0,29.85,East,81,0.0,0.0,87,0.00,CLR,,0.02,WeatherDisplay:10.37,2013-06-08 01:08:00,
2013-06-07 20:14:00,72.9,68.8,29.85,East,82,0.0,0.0,87,0.00,CLR,,0.02,WeatherDisplay:10.37,2013-06-08 01:14:00,
2013-06-07 20:19:00,72.7,68.9,29.85,ESE,103,0.0,0.0,88,0.00,CLR,,0.02,WeatherDisplay:10.37,2013-06-08 01:19:00,
2013-06-07 20:25:00,72.6,68.8,29.86,ESE,103,0.0,0.0,88,0.00,CLR,,0.02,WeatherDisplay:10.37,2013-06-08 01:25:00,
2013-06-07 20:30:00,72.4,68.6,29.85,ESE,102,0.0,0.0,88,0.00,CLR,,0.02,WeatherDisplay:10.37,2013-06-08 01:30:00,
2013-06-07 20:35:00,72.3,68.9,29.85,ESE,103,0.0,0.0,89,0.00,CLR,,0.02,WeatherDisplay:10.37,2013-06-08 01:35:00,
2013-06-07 20:40:00,72.2,68.8,29.85,ESE,103,0.0,0.0,89,0.00,CLR,,0.02,WeatherDisplay:10.37,2013-06-08 01:40:00,
2013-06-07 20:46:00,71.8,68.4,29.86,SSW,211,0.0,0.0,89,0.00,CLR,,0.02,WeatherDisplay:10.37,2013-06-08 01:46:00,
2013-06-07 20:51:00,71.5,68.4,29.85,West,271,0.0,0.0,90,0.00,CLR,,0.02,WeatherDisplay:10.37,2013-06-08 01:51:00,
2013-06-07 20:57:00,71.5,68.4,29.85,West,276,0.0,0.0,90,0.00,CLR,,0.02,WeatherDisplay:10.37,2013-06-08 01:57:00,
2013-06-07 21:03:00,71.6,68.5,29.85,West,276,0.0,0.0,90,0.00,CLR,,0.02,WeatherDisplay:10.37,2013-06-08 02:03:00,
2013-06-07 21:08:00,71.5,68.4,29.85,West,276,0.0,0.0,90,0.00,CLR,,0.02,WeatherDisplay:10.37,2013-06-08 02:08:00,
2013-06-07 21:13:00,71.5,68.4,29.85,West,281,0.0,0.0,90,0.00,CLR,,0.02,WeatherDisplay:10.37,2013-06-08 02:13:00,
2013-06-07 21:19:00,71.3,68.2,29.85,West,281,0.0,0.0,90,0.00,CLR,,0.02,WeatherDisplay:10.37,2013-06-08 02:19:00,
2013-06-07 21:26:00,71.0,67.9,29.86,WNW,295,0.0,0.0,90,0.00,CLR,,0.02,WeatherDisplay:10.37,2013-06-08 02:26:00,
2013-06-07 21:31:00,70.9,68.1,29.86,NNW,345,0.0,0.0,91,0.00,CLR,,0.02,WeatherDisplay:10.37,2013-06-08 02:31:00,
2013-06-07 21:37:00,70.8,68.0,29.86,NNW,342,0.0,0.0,91,0.00,CLR,,0.02,WeatherDisplay:10.37,2013-06-08 02:37:00,
2013-06-07 21:42:00,70.5,67.7,29.86,NNW,342,0.0,0.0,91,0.00,CLR,,0.02,WeatherDisplay:10.37,2013-06-08 02:42:00,
2013-06-07 21:47:00,70.3,67.5,29.86,NNW,342,0.0,0.0,91,0.00,CLR,,0.02,WeatherDisplay:10.37,2013-06-08 02:47:00,
2013-06-07 21:52:00,70.1,67.7,29.86,NNW,342,0.0,0.0,92,0.00,CLR,,0.02,WeatherDisplay:10.37,2013-06-08 02:52:00,
2013-06-07 21:57:00,70.0,67.6,29.86,NNW,342,0.0,0.0,92,0.00,CLR,,0.02,WeatherDisplay:10.37,2013-06-08 02:57:00,
2013-06-07 22:02:00,69.9,67.8,29.87,NNW,342,0.0,0.0,93,0.00,CLR,,0.02,WeatherDisplay:10.37,2013-06-08 03:02:00,
2013-06-07 22:08:00,69.8,67.4,29.87,NNW,342,0.0,0.0,92,0.00,CLR,,0.02,WeatherDisplay:10.37,2013-06-08 03:08:00,
2013-06-07 22:13:00,69.5,67.1,29.87,NNW,342,0.0,0.0,92,0.00,CLR,,0.02,WeatherDisplay:10.37,2013-06-08 03:13:00,
2013-06-07 22:18:00,69.5,67.4,29.87,NNW,342,0.0,0.0,93,0.00,CLR,,0.02,WeatherDisplay:10.37,2013-06-08 03:18:00,
2013-06-07 22:24:00,69.5,67.4,29.87,NNW,342,0.0,0.0,93,0.00,CLR,,0.02,WeatherDisplay:10.37,2013-06-08 03:24:00,
2013-06-07 22:29:00,69.4,67.3,29.87,NNW,333,0.0,0.0,93,0.00,CLR,,0.02,WeatherDisplay:10.37,2013-06-08 03:29:00,
2013-06-07 22:34:00,69.3,67.2,29.87,NNW,333,0.0,0.0,93,0.00,CLR,,0.02,WeatherDisplay:10.37,2013-06-08 03:34:00,
2013-06-07 22:39:00,69.2,67.1,29.87,NNW,333,0.0,0.0,93,0.00,CLR,,0.02,WeatherDisplay:10.37,2013-06-08 03:39:00,
2013-06-07 22:45:00,68.9,66.8,29.88,NNW,333,0.0,0.0,93,0.00,CLR,,0.02,WeatherDisplay:10.37,2013-06-08 03:45:00,
2013-06-07 22:50:00,68.9,66.8,29.88,NNW,330,0.0,0.0,93,0.00,CLR,,0.02,WeatherDisplay:10.37,2013-06-08 03:50:00,
2013-06-07 22:55:00,68.8,66.7,29.88,NNW,332,0.0,0.0,93,0.00,CLR,,0.02,WeatherDisplay:10.37,2013-06-08 03:55:00,
2013-06-07 23:01:00,68.8,66.7,29.88,NNW,332,0.0,0.0,93,0.00,CLR,,0.02,WeatherDisplay:10.37,2013-06-08 04:01:00,
2013-06-07 23:02:00,68.8,66.7,29.88,NNW,332,0.0,0.0,93,0.00,CLR,,0.02,WeatherDisplay:10.37,2013-06-08 04:02:00,
2013-06-07 23:07:00,68.4,66.3,29.89,NNW,331,0.0,0.0,93,0.00,CLR,,0.02,WeatherDisplay:10.37,2013-06-08 04:07:00,
2013-06-07 23:12:00,68.2,66.4,29.88,NNW,331,0.0,0.0,94,0.00,CLR,,0.02,WeatherDisplay:10.37,2013-06-08 04:12:00,
2013-06-07 23:17:00,68.4,66.6,29.88,NNW,332,0.0,0.0,94,0.00,CLR,,0.02,WeatherDisplay:10.37,2013-06-08 04:17:00,
2013-06-07 23:22:00,68.6,66.8,29.89,NNW,332,0.0,0.0,94,0.00,CLR,,0.02,WeatherDisplay:10.37,2013-06-08 04:22:00,
2013-06-07 23:27:00,68.6,66.8,29.89,NNW,331,0.0,0.0,94,0.00,CLR,,0.02,WeatherDisplay:10.37,2013-06-08 04:27:00,
2013-06-07 23:32:00,68.8,67.0,29.89,NNW,331,0.0,0.0,94,0.00,CLR,,0.02,WeatherDisplay:10.37,2013-06-08 04:32:00,
2013-06-07 23:37:00,68.8,67.0,29.89,NW,325,0.0,0.0,94,0.00,CLR,,0.02,WeatherDisplay:10.37,2013-06-08 04:37:00,
2013-06-07 23:42:00,68.7,66.9,29.89,WNW,302,0.0,0.0,94,0.00,CLR,,0.02,WeatherDisplay:10.37,2013-06-08 04:42:00,
2013-06-07 23:47:00,68.7,66.9,29.89,NW,316,1.1,0.0,94,0.00,CLR,,0.02,WeatherDisplay:10.37,2013-06-08 04:47:00,
2013-06-07 23:52:00,68.6,66.8,29.89,NNW,329,0.0,0.0,94,0.00,CLR,,0.02,WeatherDisplay:10.37,2013-06-08 04:52:00,
2013-06-07 23:57:00,68.5,66.7,29.89,NNW,330,0.0,0.0,94,0.00,CLR,,0.02,WeatherDisplay:10.37,2013-06-08 04:57:00,